Cost, Texas
Current Conditions -  °F | °C
As of 9:58 AM on Sunday 21 Dec 2014 (Local Time) from KBAZ Reporting Station
Haze Haze  
Wind Chill: 53°   Ceiling: 1000
Heat Index: 53°   Visibility: 4mi
Dew Point: 48°   Wind: 9mph
Humidity: 83%   Direction: 160°SSE
Pressure: 30.09"   Gusts: NA
Location:  29.44°N, 97.53°W
Report Text: KBAZ 211558Z 16008KT 4SM BR BKN010 OVC021 12/09 A3009 RMK AO2 T01170089
Loading
Personal Weather Stations






























Interactive Weather Map New forecast layout! Learn more

10-Day Weather Forecast

Advertisements
Track Severe Weather on mobile